Time;durP1;ratioP1;P1;durP2;ratioP2;P2;SDS_P1;SDS_P2;PMS_P1;PMS_P2;Temp;Humidity;BMP_temperature;BMP_pressure;BME280_temperature;BME280_humidity;BME280_pressure;Samples;Min_cycle;Max_cycle;Signal;HPM_P1;HPM_P2
2023/02/26 00:00:57;;;;;;;3.87;1.70;;;2.70;99.90;;;;;;5043815;28;20197;-75
2023/02/26 00:03:24;;;;;;;4.00;1.90;;;2.70;99.90;;;;;;5044392;28;20891;-75
2023/02/26 00:05:51;;;;;;;5.20;1.93;;;2.70;99.90;;;;;;5044418;28;20215;-76
2023/02/26 00:08:19;;;;;;;8.47;2.47;;;2.70;99.90;;;;;;5044610;28;20201;-78
2023/02/26 00:10:47;;;;;;;8.17;2.27;;;2.80;99.90;;;;;;5044062;28;20206;-79
2023/02/26 00:13:14;;;;;;;4.13;1.60;;;2.90;99.90;;;;;;5043794;28;20199;-77
2023/02/26 00:15:42;;;;;;;4.83;1.60;;;2.90;99.90;;;;;;5044793;28;21016;-76
2023/02/26 00:18:13;;;;;;;7.60;2.10;;;3.00;99.90;;;;;;5044204;28;20210;-75
2023/02/26 00:20:42;;;;;;;6.60;2.53;;;3.20;99.90;;;;;;5044036;28;20289;-75
2023/02/26 00:23:13;;;;;;;4.87;1.40;;;3.30;99.90;;;;;;5044223;28;20227;-76
2023/02/26 00:25:42;;;;;;;5.90;1.47;;;3.40;99.90;;;;;;5045058;28;20233;-77
2023/02/26 00:28:09;;;;;;;9.93;1.53;;;3.40;99.90;;;;;;5048645;28;20504;-76
2023/02/26 00:30:37;;;;;;;7.97;1.33;;;3.40;99.90;;;;;;5064075;28;20292;-76
2023/02/26 00:33:05;;;;;;;6.17;1.20;;;3.40;99.90;;;;;;5062276;28;20767;-77
2023/02/26 00:35:33;;;;;;;3.63;1.10;;;3.50;99.90;;;;;;5047212;28;20644;-76
2023/02/26 00:38:02;;;;;;;3.97;1.20;;;3.50;99.90;;;;;;5043311;28;20240;-78
2023/02/26 00:40:43;;;;;;;5.00;1.13;;;3.50;99.90;;;;;;5043877;28;20598;-75
2023/02/26 00:43:15;;;;;;;5.70;1.50;;;3.70;6.10;;;;;;5043120;28;20883;-76
2023/02/26 00:45:47;;;;;;;5.93;1.30;;;3.80;1.00;;;;;;5042965;28;20308;-77
2023/02/26 00:48:27;;;;;;;5.77;1.10;;;3.90;1.00;;;;;;5043121;28;20288;-77
2023/02/26 00:51:01;;;;;;;6.33;1.40;;;3.90;1.00;;;;;;5043281;28;20198;-76
2023/02/26 00:53:32;;;;;;;6.73;1.37;;;3.90;1.00;;;;;;5043533;28;20212;-77
2023/02/26 00:56:01;;;;;;;4.40;1.50;;;3.90;1.00;;;;;;5042314;28;20190;-77
2023/02/26 00:58:27;;;;;;;6.40;1.20;;;3.90;1.00;;;;;;5043215;28;20221;-77
2023/02/26 01:00:54;;;;;;;4.87;1.97;;;3.90;1.00;;;;;;5042144;28;20212;-77
2023/02/26 01:03:21;;;;;;;3.47;1.27;;;3.90;1.00;;;;;;5042389;28;20245;-75
2023/02/26 01:05:49;;;;;;;8.73;1.73;;;3.90;99.90;;;;;;5043167;28;20202;-76
2023/02/26 01:08:23;;;;;;;4.30;1.33;;;3.90;99.90;;;;;;5043093;28;20492;-76
2023/02/26 01:10:50;;;;;;;6.10;1.97;;;3.80;99.90;;;;;;5042052;28;20293;-75
2023/02/26 01:13:19;;;;;;;7.73;1.50;;;3.70;99.90;;;;;;5043531;28;20205;-77
2023/02/26 01:15:51;;;;;;;3.07;1.20;;;3.70;99.90;;;;;;5043030;28;20294;-77
2023/02/26 01:18:22;;;;;;;5.17;1.20;;;3.70;99.90;;;;;;5042546;28;20598;-75
2023/02/26 01:20:56;;;;;;;4.90;1.40;;;3.60;99.90;;;;;;5042788;28;20198;-77
2023/02/26 01:23:25;;;;;;;3.63;1.10;;;3.60;99.90;;;;;;5042286;28;20198;-79
2023/02/26 01:25:56;;;;;;;2.53;1.10;;;3.50;99.90;;;;;;5042178;28;20684;-80
2023/02/26 01:28:25;;;;;;;2.40;0.90;;;3.50;99.90;;;;;;5042957;28;20200;-79
2023/02/26 01:30:59;;;;;;;6.07;1.27;;;3.40;99.90;;;;;;5041793;28;20198;-79
2023/02/26 01:33:30;;;;;;;1.77;0.90;;;3.30;1.00;;;;;;5043057;28;20661;-77
2023/02/26 01:36:03;;;;;;;8.37;1.20;;;3.30;1.00;;;;;;5042020;28;20197;-79
2023/02/26 01:38:38;;;;;;;4.43;1.00;;;3.30;99.90;;;;;;5042529;28;20222;-78
2023/02/26 01:41:22;;;;;;;6.17;1.30;;;3.20;1.00;;;;;;5042722;28;20194;-79
2023/02/26 01:44:03;;;;;;;6.90;1.97;;;3.20;1.00;;;;;;5043318;28;20214;-80
2023/02/26 01:46:36;;;;;;;5.83;1.13;;;3.20;1.00;;;;;;5043045;28;20406;-78
2023/02/26 01:49:03;;;;;;;7.20;1.23;;;3.00;1.00;;;;;;5043089;28;20226;-79
2023/02/26 01:51:49;;;;;;;3.23;1.30;;;2.90;1.00;;;;;;5042853;28;20202;-78
2023/02/26 01:54:18;;;;;;;7.93;0.97;;;2.90;1.00;;;;;;5042908;28;20197;-78
2023/02/26 01:56:47;;;;;;;8.00;1.07;;;2.90;1.00;;;;;;5043318;28;20284;-80
2023/02/26 01:59:22;;;;;;;4.73;1.20;;;2.90;1.00;;;;;;5041728;28;20478;-79
2023/02/26 02:01:51;;;;;;;3.27;1.10;;;2.80;1.00;;;;;;5055815;28;20793;-78
2023/02/26 02:04:18;;;;;;;3.57;1.10;;;2.80;1.00;;;;;;5062568;28;20228;-78
2023/02/26 02:06:46;;;;;;;6.53;1.20;;;2.70;1.00;;;;;;5052550;28;20333;-80
2023/02/26 02:09:13;;;;;;;4.27;1.37;;;2.70;1.00;;;;;;5042256;28;20197;-79
2023/02/26 02:12:02;;;;;;;4.77;1.47;;;2.60;1.00;;;;;;5043042;28;20926;-79
2023/02/26 02:14:43;;;;;;;4.77;1.03;;;2.60;1.00;;;;;;5042007;28;20582;-79
2023/02/26 02:17:16;;;;;;;7.13;1.20;;;2.50;1.00;;;;;;5042629;28;20608;-78
2023/02/26 02:20:19;;;;;;;7.07;1.90;;;2.50;1.00;;;;;;5052038;28;20593;-79
2023/02/26 02:22:58;;;;;;;6.60;1.33;;;2.50;1.00;;;;;;5038889;28;20220;-79
2023/02/26 02:25:54;;;;;;;6.57;1.30;;;2.40;1.00;;;;;;5042426;28;20225;-78
2023/02/26 02:28:35;;;;;;;9.60;1.50;;;2.30;1.00;;;;;;5021602;28;20248;-79
2023/02/26 02:31:08;;;;;;;4.30;1.47;;;2.30;1.00;;;;;;5021706;28;20212;-77
2023/02/26 02:33:43;;;;;;;4.80;1.20;;;2.30;1.00;;;;;;5022457;28;20211;-78
2023/02/26 02:36:15;;;;;;;3.23;0.90;;;2.30;1.00;;;;;;5022072;28;20732;-79
2023/02/26 02:38:48;;;;;;;6.03;1.10;;;2.30;1.00;;;;;;5022450;28;20571;-76
2023/02/26 02:41:19;;;;;;;4.33;1.20;;;2.40;1.00;;;;;;5021398;28;20195;-80
2023/02/26 02:43:49;;;;;;;6.17;1.10;;;2.40;1.00;;;;;;5022179;28;20931;-78
2023/02/26 02:46:21;;;;;;;6.10;1.30;;;2.40;1.00;;;;;;5021948;28;20213;-78
2023/02/26 02:48:54;;;;;;;3.07;1.00;;;2.30;1.00;;;;;;5021935;28;20588;-78
2023/02/26 02:51:25;;;;;;;5.83;2.03;;;2.30;1.00;;;;;;5022116;28;20221;-79
2023/02/26 02:53:57;;;;;;;21.93;4.03;;;2.30;1.00;;;;;;5021985;28;20198;-80
2023/02/26 02:56:28;;;;;;;3.37;1.03;;;2.30;1.00;;;;;;5021840;28;20194;-78
2023/02/26 02:58:59;;;;;;;9.83;1.40;;;2.30;1.00;;;;;;5021900;28;20226;-79
2023/02/26 03:01:29;;;;;;;3.80;0.97;;;2.20;1.00;;;;;;5022408;28;20203;-78
2023/02/26 03:04:00;;;;;;;5.93;1.20;;;2.20;1.00;;;;;;5021359;28;20203;-79
2023/02/26 03:06:27;;;;;;;7.77;1.50;;;2.20;1.00;;;;;;5021801;28;20210;-79
2023/02/26 03:08:55;;;;;;;5.03;1.50;;;2.10;1.00;;;;;;5021877;28;20206;-80
2023/02/26 03:11:22;;;;;;;4.93;1.17;;;2.20;1.00;;;;;;5021501;28;20237;-79
2023/02/26 03:13:50;;;;;;;7.00;1.00;;;2.10;1.00;;;;;;5022305;28;20201;-78
2023/02/26 03:16:40;;;;;;;3.23;1.20;;;2.10;1.00;;;;;;5021618;28;20217;-78
2023/02/26 03:19:15;;;;;;;4.03;1.30;;;2.10;1.00;;;;;;5021028;28;20223;-79
2023/02/26 03:21:49;;;;;;;9.30;1.20;;;2.00;1.00;;;;;;5022352;28;20289;-79
2023/02/26 03:24:23;;;;;;;6.53;1.37;;;1.90;1.00;;;;;;5020813;28;20236;-76
2023/02/26 03:26:58;;;;;;;5.10;1.27;;;1.90;1.00;;;;;;5034769;28;20241;-76
2023/02/26 03:29:33;;;;;;;5.97;1.47;;;1.80;1.00;;;;;;5045080;28;20201;-77
2023/02/26 03:32:06;;;;;;;3.63;1.10;;;1.80;1.00;;;;;;5044915;28;20669;-79
2023/02/26 03:34:37;;;;;;;4.20;1.43;;;1.70;1.00;;;;;;5045032;28;20198;-77
2023/02/26 03:37:08;;;;;;;3.00;1.67;;;1.70;11.00;;;;;;5045204;28;20734;-79
2023/02/26 03:39:40;;;;;;;3.23;1.40;;;1.60;16.70;;;;;;5045103;28;20666;-77
2023/02/26 03:42:13;;;;;;;4.77;1.27;;;1.60;29.30;;;;;;5044199;28;20210;-77
2023/02/26 03:44:46;;;;;;;8.23;1.53;;;1.50;45.20;;;;;;5044387;28;20210;-78
2023/02/26 03:47:16;;;;;;;3.57;1.00;;;1.40;79.60;;;;;;5053047;28;20209;-79
2023/02/26 03:49:46;;;;;;;4.17;1.20;;;1.40;94.10;;;;;;5065089;28;20197;-77
2023/02/26 03:52:14;;;;;;;1.90;0.97;;;1.30;99.90;;;;;;5062943;28;20215;-78
2023/02/26 03:54:45;;;;;;;2.50;1.00;;;1.30;99.90;;;;;;5062122;28;20193;-77
2023/02/26 03:57:12;;;;;;;1.77;0.80;;;1.30;99.90;;;;;;5043886;28;20222;-75
2023/02/26 03:59:39;;;;;;;2.37;1.10;;;1.20;99.90;;;;;;5043800;28;20216;-78
2023/02/26 04:02:17;;;;;;;2.27;1.27;;;1.10;99.90;;;;;;5044729;28;20696;-76
2023/02/26 04:04:47;;;;;;;3.17;0.90;;;1.10;99.90;;;;;;5044632;28;20237;-76
2023/02/26 04:07:17;;;;;;;1.80;1.03;;;1.00;99.90;;;;;;5044713;28;20208;-77
2023/02/26 04:09:45;;;;;;;4.40;1.40;;;1.00;99.90;;;;;;5044995;28;20301;-75
2023/02/26 04:12:12;;;;;;;5.23;1.20;;;0.90;99.90;;;;;;5044156;28;20214;-76
2023/02/26 04:14:39;;;;;;;4.47;1.97;;;0.90;99.90;;;;;;5044175;28;20208;-75
2023/02/26 04:17:06;;;;;;;3.57;1.40;;;0.90;99.90;;;;;;5044683;28;20213;-77
2023/02/26 04:19:34;;;;;;;3.67;1.30;;;0.80;99.90;;;;;;5044421;28;20204;-75
2023/02/26 04:22:01;;;;;;;4.10;1.40;;;0.80;99.90;;;;;;5044388;28;20335;-77
2023/02/26 04:24:28;;;;;;;3.40;1.27;;;0.80;99.90;;;;;;5044251;28;20594;-77
2023/02/26 04:26:55;;;;;;;4.37;1.30;;;0.80;99.90;;;;;;5043422;28;20252;-78
2023/02/26 04:29:22;;;;;;;3.07;1.00;;;0.80;99.90;;;;;;5044032;28;20217;-76
2023/02/26 04:31:49;;;;;;;2.67;1.07;;;0.80;99.90;;;;;;5044513;28;20402;-75
2023/02/26 04:34:16;;;;;;;3.30;1.40;;;0.80;99.90;;;;;;5044253;28;20204;-76
2023/02/26 04:36:44;;;;;;;4.20;1.43;;;0.80;99.90;;;;;;5043775;28;20514;-78
2023/02/26 04:39:11;;;;;;;5.77;1.50;;;0.80;99.90;;;;;;5043592;28;20202;-76
2023/02/26 04:41:39;;;;;;;5.57;1.43;;;0.80;99.90;;;;;;5043131;28;20852;-76
2023/02/26 04:44:06;;;;;;;7.27;1.23;;;0.90;99.90;;;;;;5043847;28;20206;-75
2023/02/26 04:46:33;;;;;;;5.07;1.43;;;0.90;99.90;;;;;;5043928;28;20232;-76
2023/02/26 04:49:00;;;;;;;4.07;1.13;;;0.90;99.90;;;;;;5043296;28;20583;-75
2023/02/26 04:51:27;;;;;;;7.67;1.83;;;1.00;99.90;;;;;;5044289;28;20241;-78
2023/02/26 04:53:55;;;;;;;6.80;1.13;;;1.00;99.90;;;;;;5048868;28;20359;-75
2023/02/26 04:56:22;;;;;;;4.43;1.20;;;1.10;99.90;;;;;;5063505;28;20282;-75
2023/02/26 04:58:49;;;;;;;4.30;1.60;;;1.10;99.90;;;;;;5063289;28;20307;-75
2023/02/26 05:01:16;;;;;;;5.60;1.20;;;1.20;99.90;;;;;;5060735;28;20206;-79
2023/02/26 05:03:43;;;;;;;4.30;1.00;;;1.20;99.90;;;;;;5043049;28;20538;-76
2023/02/26 05:06:10;;;;;;;2.97;1.20;;;1.20;99.90;;;;;;5043488;28;20225;-74
2023/02/26 05:08:40;;;;;;;6.70;2.00;;;1.20;99.90;;;;;;5042675;28;20201;-77
2023/02/26 05:11:09;;;;;;;2.23;0.93;;;1.20;99.90;;;;;;5043121;28;20221;-77
2023/02/26 05:13:36;;;;;;;4.03;1.10;;;1.20;99.90;;;;;;5043793;28;20229;-76
2023/02/26 05:16:03;;;;;;;2.13;1.00;;;1.20;99.90;;;;;;5042322;28;20232;-77
2023/02/26 05:18:29;;;;;;;8.07;1.43;;;1.20;99.90;;;;;;5043434;28;20311;-77
2023/02/26 05:20:57;;;;;;;3.37;1.43;;;1.20;99.90;;;;;;5043159;28;20289;-78
2023/02/26 05:23:24;;;;;;;4.27;1.20;;;1.20;99.90;;;;;;5042393;28;20622;-79
2023/02/26 05:25:51;;;;;;;5.20;1.17;;;1.20;99.90;;;;;;5043181;28;20925;-75
2023/02/26 05:28:19;;;;;;;4.63;1.10;;;1.20;99.90;;;;;;5043474;28;20658;-76
2023/02/26 05:30:46;;;;;;;7.30;1.30;;;1.10;99.90;;;;;;5042807;28;20216;-77
2023/02/26 05:33:13;;;;;;;5.67;1.57;;;1.10;99.90;;;;;;5042946;28;20198;-75
2023/02/26 05:35:40;;;;;;;3.30;1.23;;;1.10;99.90;;;;;;5043823;28;20323;-76
2023/02/26 05:38:07;;;;;;;5.70;1.37;;;1.10;99.90;;;;;;5042460;28;20583;-77
2023/02/26 05:40:34;;;;;;;3.43;0.90;;;1.10;99.90;;;;;;5043063;28;20797;-76
2023/02/26 05:43:00;;;;;;;3.83;1.10;;;1.00;99.90;;;;;;5042876;28;20549;-78
2023/02/26 05:45:29;;;;;;;5.10;0.87;;;1.00;99.90;;;;;;5043698;28;20226;-78
2023/02/26 05:47:56;;;;;;;5.70;1.63;;;0.90;99.90;;;;;;5042397;28;20190;-77
2023/02/26 05:50:23;;;;;;;4.10;1.13;;;0.90;99.90;;;;;;5042988;28;20630;-79
2023/02/26 05:52:49;;;;;;;3.87;1.10;;;0.90;99.90;;;;;;5042609;28;20212;-77
2023/02/26 05:55:16;;;;;;;7.00;1.40;;;0.90;99.90;;;;;;5043468;28;20200;-79
2023/02/26 05:57:43;;;;;;;2.83;1.10;;;0.90;99.90;;;;;;5042913;28;20308;-77
2023/02/26 06:00:12;;;;;;;6.07;1.70;;;0.90;99.90;;;;;;5042340;28;20202;-79
2023/02/26 06:02:40;;;;;;;2.20;1.03;;;0.90;99.90;;;;;;5043117;28;20634;-77
2023/02/26 06:05:08;;;;;;;3.97;1.40;;;0.90;99.90;;;;;;5042411;28;20228;-75
2023/02/26 06:07:35;;;;;;;7.47;1.37;;;0.90;99.90;;;;;;5042584;28;20280;-78
2023/02/26 06:10:02;;;;;;;4.93;1.60;;;0.90;99.90;;;;;;5042024;28;20220;-76
2023/02/26 06:12:29;;;;;;;5.00;1.10;;;0.90;99.90;;;;;;5042341;28;20217;-76
2023/02/26 06:14:56;;;;;;;2.83;0.80;;;0.90;99.90;;;;;;5042921;28;20202;-78
2023/02/26 06:17:23;;;;;;;2.50;0.87;;;0.90;99.90;;;;;;5042473;28;20205;-77
2023/02/26 06:19:52;;;;;;;3.30;1.23;;;0.90;99.90;;;;;;5042022;28;20208;-76
2023/02/26 06:22:19;;;;;;;4.77;1.30;;;0.80;99.90;;;;;;5042998;28;20311;-77
2023/02/26 06:24:46;;;;;;;4.80;1.10;;;0.80;99.90;;;;;;5042605;28;20198;-78
2023/02/26 06:27:13;;;;;;;3.50;1.20;;;0.80;99.90;;;;;;5041403;28;20234;-79
2023/02/26 06:29:40;;;;;;;4.50;1.23;;;0.70;99.90;;;;;;5042057;28;20525;-78
2023/02/26 06:32:07;;;;;;;3.57;0.90;;;0.70;99.90;;;;;;5041837;28;20216;-76
2023/02/26 06:34:34;;;;;;;3.27;1.30;;;0.70;99.90;;;;;;5041594;28;20285;-76
2023/02/26 06:37:02;;;;;;;9.63;1.53;;;0.60;99.90;;;;;;5042669;28;20202;-78
2023/02/26 06:39:29;;;;;;;6.97;1.43;;;0.70;99.90;;;;;;5041893;28;20201;-78
2023/02/26 06:41:56;;;;;;;6.60;1.30;;;0.70;99.90;;;;;;5040569;28;20206;-76
2023/02/26 06:44:23;;;;;;;5.67;1.57;;;0.80;99.90;;;;;;5041850;28;20948;-77
2023/02/26 06:46:50;;;;;;;3.87;1.00;;;0.80;99.90;;;;;;5041651;28;20221;-78
2023/02/26 06:49:17;;;;;;;2.60;1.20;;;0.90;99.90;;;;;;5041842;28;21047;-75
2023/02/26 06:51:44;;;;;;;8.63;2.33;;;0.90;99.90;;;;;;5042082;28;20328;-74
2023/02/26 06:54:12;;;;;;;4.60;1.00;;;1.00;99.90;;;;;;5040943;28;20202;-76
2023/02/26 06:56:39;;;;;;;4.00;0.90;;;1.10;99.90;;;;;;5042481;28;20197;-76
2023/02/26 06:59:06;;;;;;;5.23;2.50;;;1.20;99.90;;;;;;5042126;28;20236;-79
2023/02/26 07:01:33;;;;;;;4.70;1.20;;;1.40;99.90;;;;;;5045548;28;20290;-75
2023/02/26 07:03:59;;;;;;;3.73;1.03;;;1.40;99.90;;;;;;5051505;28;21026;-77
2023/02/26 07:06:27;;;;;;;6.57;2.03;;;1.50;99.90;;;;;;5065614;28;20808;-77
2023/02/26 07:08:54;;;;;;;7.33;1.90;;;1.60;99.90;;;;;;5065080;28;20248;-77
2023/02/26 07:11:22;;;;;;;1.70;1.50;;;1.70;99.90;;;;;;5057893;28;20206;-78
2023/02/26 07:13:50;;;;;;;1.43;0.80;;;1.80;99.90;;;;;;5046352;28;20752;-77
2023/02/26 07:16:17;;;;;;;5.33;1.07;;;1.80;99.90;;;;;;5045533;28;20194;-76
2023/02/26 07:18:44;;;;;;;5.53;1.20;;;1.90;99.90;;;;;;5046119;28;20301;-77
2023/02/26 07:21:11;;;;;;;7.27;1.80;;;1.90;96.20;;;;;;5045169;28;20676;-77
2023/02/26 07:23:38;;;;;;;10.27;1.63;;;2.00;96.80;;;;;;5045040;28;20857;-78
2023/02/26 07:26:05;;;;;;;4.37;1.43;;;2.00;85.20;;;;;;5045664;28;20328;-77
2023/02/26 07:28:34;;;;;;;3.47;1.27;;;2.10;81.20;;;;;;5045360;28;20267;-78
2023/02/26 07:31:00;;;;;;;5.93;1.27;;;2.10;48.60;;;;;;5044749;28;20225;-78
2023/02/26 07:33:28;;;;;;;7.10;1.50;;;2.20;61.10;;;;;;5045792;28;20668;-76
2023/02/26 07:35:55;;;;;;;4.80;1.77;;;2.20;76.80;;;;;;5055482;28;20197;-75
2023/02/26 07:38:21;;;;;;;3.20;1.33;;;2.20;81.30;;;;;;5053274;28;20218;-77
2023/02/26 07:40:49;;;;;;;10.40;1.70;;;2.30;89.50;;;;;;5046117;28;20283;-80
2023/02/26 07:43:16;;;;;;;2.80;1.20;;;2.30;78.20;;;;;;5045500;28;20216;-78
2023/02/26 07:45:44;;;;;;;8.23;1.80;;;2.30;57.40;;;;;;5045597;28;20229;-77
2023/02/26 07:48:11;;;;;;;2.73;1.07;;;2.30;63.90;;;;;;5045189;28;20220;-76
2023/02/26 07:50:38;;;;;;;6.80;1.30;;;2.30;70.50;;;;;;5044305;28;20198;-77
2023/02/26 07:53:05;;;;;;;4.23;1.70;;;2.30;58.20;;;;;;5058480;28;20208;-77
2023/02/26 07:55:32;;;;;;;3.67;1.20;;;2.30;68.80;;;;;;5059549;28;21027;-77
2023/02/26 07:57:58;;;;;;;3.67;1.17;;;2.30;58.80;;;;;;5043875;28;20221;-76
2023/02/26 08:00:33;;;;;;;7.53;1.97;;;2.30;85.90;;;;;;4948905;28;20394;-80
2023/02/26 08:03:01;;;;;;;5.23;1.63;;;2.30;52.50;;;;;;5054226;28;20283;-75
2023/02/26 08:05:28;;;;;;;4.57;1.20;;;2.40;52.50;;;;;;5059399;28;20882;-77
2023/02/26 08:08:07;;;;;;;1.97;0.90;;;2.40;40.10;;;;;;5040570;28;20600;-75
2023/02/26 08:10:34;;;;;;;6.10;1.83;;;2.50;2.20;;;;;;5051116;28;20220;-75
2023/02/26 08:13:01;;;;;;;2.90;0.97;;;2.60;1.00;;;;;;5061244;28;20201;-76
2023/02/26 08:15:28;;;;;;;5.70;1.40;;;2.60;1.00;;;;;;5064067;28;20308;-76
2023/02/26 08:17:55;;;;;;;5.83;1.53;;;2.60;1.00;;;;;;5064088;28;20204;-77
2023/02/26 08:20:23;;;;;;;3.27;1.13;;;2.70;1.00;;;;;;5049636;28;20232;-76
2023/02/26 08:22:51;;;;;;;5.43;1.07;;;2.70;1.00;;;;;;5063724;28;20205;-77
2023/02/26 08:25:41;;;;;;;3.40;1.37;;;2.80;1.00;;;;;;5063359;28;20611;-79
2023/02/26 08:28:08;;;;;;;3.30;1.23;;;2.90;1.00;;;;;;5038514;28;20215;-76
2023/02/26 08:30:35;;;;;;;2.87;0.97;;;2.90;1.00;;;;;;5063848;28;20516;-77
2023/02/26 08:33:02;;;;;;;4.87;0.97;;;3.00;1.00;;;;;;5055233;28;20209;-81
2023/02/26 08:35:31;;;;;;;6.37;1.40;;;3.00;1.00;;;;;;5053048;28;20200;-77
2023/02/26 08:37:58;;;;;;;6.77;1.30;;;3.10;1.00;;;;;;5062183;28;20734;-77
2023/02/26 08:40:25;;;;;;;3.03;0.80;;;3.10;1.00;;;;;;5060677;28;20202;-77
2023/02/26 08:42:52;;;;;;;3.33;0.93;;;3.20;1.00;;;;;;5063691;28;20208;-77
2023/02/26 08:45:19;;;;;;;3.30;1.10;;;3.30;1.00;;;;;;5064162;28;20209;-77
2023/02/26 08:47:46;;;;;;;3.47;1.23;;;3.30;1.00;;;;;;5052212;28;20232;-77
2023/02/26 08:50:13;;;;;;;3.70;1.43;;;3.40;1.00;;;;;;5062942;28;20324;-76
2023/02/26 08:52:41;;;;;;;7.37;1.43;;;3.40;1.00;;;;;;5057806;28;20218;-76
2023/02/26 08:55:09;;;;;;;3.70;1.10;;;3.50;1.00;;;;;;5063672;28;20215;-77
2023/02/26 08:57:36;;;;;;;4.50;1.00;;;3.50;1.00;;;;;;5064676;28;20280;-77
2023/02/26 09:00:09;;;;;;;4.23;1.17;;;3.60;1.00;;;;;;5055280;28;20224;-76
2023/02/26 09:02:36;;;;;;;1.93;1.00;;;3.60;1.00;;;;;;5061910;28;20205;-76
2023/02/26 09:05:03;;;;;;;3.47;1.03;;;3.70;1.00;;;;;;5064041;28;20186;-76
2023/02/26 09:07:30;;;;;;;3.43;1.03;;;3.70;1.00;;;;;;5048434;28;20229;-76
2023/02/26 09:09:58;;;;;;;4.03;1.17;;;3.70;99.90;;;;;;5042590;28;20216;-76
2023/02/26 09:12:25;;;;;;;3.70;1.27;;;3.80;99.90;;;;;;5042767;28;20214;-76
2023/02/26 09:14:52;;;;;;;5.03;1.30;;;3.80;99.90;;;;;;5041870;28;20938;-76
2023/02/26 09:17:19;;;;;;;1.90;0.80;;;3.90;99.90;;;;;;5042557;28;20202;-77
2023/02/26 09:19:46;;;;;;;3.00;1.00;;;3.90;99.90;;;;;;5042772;28;20209;-77
2023/02/26 09:22:13;;;;;;;5.93;0.90;;;3.80;1.00;;;;;;5040925;28;20208;-76
2023/02/26 09:24:39;;;;;;;8.87;1.37;;;3.90;99.90;;;;;;5052899;28;20212;-78
2023/02/26 09:27:08;;;;;;;3.73;1.10;;;3.90;1.00;;;;;;5061219;28;20241;-78
2023/02/26 09:29:35;;;;;;;1.77;1.10;;;3.80;1.00;;;;;;5049586;28;20304;-76
2023/02/26 09:32:02;;;;;;;4.47;1.10;;;3.80;1.00;;;;;;5042180;28;20666;-78
2023/02/26 09:34:28;;;;;;;2.50;1.00;;;3.90;1.00;;;;;;5042759;28;20209;-78
2023/02/26 09:36:55;;;;;;;3.73;1.00;;;3.80;1.00;;;;;;5042146;28;20210;-78
2023/02/26 09:39:23;;;;;;;3.57;0.97;;;3.90;1.00;;;;;;5050068;28;20752;-76
2023/02/26 09:41:53;;;;;;;2.73;0.77;;;4.00;1.00;;;;;;5061299;28;20213;-78
2023/02/26 09:44:24;;;;;;;6.80;1.00;;;4.00;1.00;;;;;;5058890;28;20773;-78
2023/02/26 09:47:01;;;;;;;3.03;1.27;;;4.00;1.00;;;;;;5060404;28;20692;-77
2023/02/26 09:49:40;;;;;;;2.93;1.00;;;4.10;99.90;;;;;;5064366;28;20208;-76
2023/02/26 09:52:17;;;;;;;2.40;1.27;;;4.20;99.90;;;;;;5062780;28;20209;-80
2023/02/26 09:54:48;;;;;;;1.80;0.80;;;4.30;99.90;;;;;;5053118;28;20203;-78
2023/02/26 09:57:29;;;;;;;2.33;1.30;;;4.30;99.90;;;;;;5056636;28;20749;-78
2023/02/26 09:59:59;;;;;;;5.47;0.80;;;4.40;1.00;;;;;;5054905;28;20200;-77
2023/02/26 10:02:37;;;;;;;2.37;0.77;;;4.50;99.90;;;;;;5047277;28;20267;-79
2023/02/26 10:05:17;;;;;;;1.47;0.80;;;4.60;1.00;;;;;;5063035;28;20679;-77
2023/02/26 10:07:49;;;;;;;4.00;0.73;;;4.60;14.00;;;;;;5045118;28;20236;-79
2023/02/26 10:10:24;;;;;;;7.93;2.60;;;4.70;1.00;;;;;;5053165;28;20406;-78
2023/02/26 10:12:52;;;;;;;2.43;1.33;;;4.80;1.00;;;;;;5042827;28;20209;-78
2023/02/26 10:15:27;;;;;;;4.17;1.33;;;4.90;1.00;;;;;;5041939;28;20202;-79
2023/02/26 10:18:05;;;;;;;1.83;0.90;;;4.90;1.00;;;;;;5042201;28;20214;-79
2023/02/26 10:20:38;;;;;;;2.63;0.87;;;5.00;1.00;;;;;;5042916;28;20200;-77
2023/02/26 10:23:12;;;;;;;2.70;0.90;;;5.10;1.00;;;;;;5041893;28;20252;-78
2023/02/26 10:25:46;;;;;;;2.87;0.83;;;5.10;1.00;;;;;;5042021;28;20198;-76
2023/02/26 10:28:34;;;;;;;2.30;0.90;;;5.10;1.00;;;;;;5057401;28;20223;-77
2023/02/26 10:31:05;;;;;;;1.93;0.80;;;5.30;99.90;;;;;;5059352;28;20340;-78
2023/02/26 10:33:40;;;;;;;2.70;0.87;;;5.30;99.90;;;;;;5041576;28;20323;-78
2023/02/26 10:36:17;;;;;;;2.40;0.87;;;5.50;99.90;;;;;;5041757;28;20201;-78
2023/02/26 10:38:47;;;;;;;3.67;1.00;;;5.60;99.90;;;;;;5042512;28;20206;-76
2023/02/26 10:41:19;;;;;;;3.47;1.00;;;5.70;1.00;;;;;;5040427;28;20197;-77
2023/02/26 10:43:51;;;;;;;3.67;0.80;;;5.80;1.00;;;;;;5042557;28;20210;-77
2023/02/26 10:46:29;;;;;;;7.90;0.90;;;5.80;1.00;;;;;;5042070;28;20660;-78
2023/02/26 10:49:14;;;;;;;5.83;1.63;;;5.80;11.90;;;;;;5041973;28;20624;-75
2023/02/26 10:51:42;;;;;;;4.30;0.90;;;5.90;1.00;;;;;;5043020;28;20789;-75
2023/02/26 10:54:16;;;;;;;1.60;0.70;;;6.00;99.90;;;;;;5057404;28;20212;-77
2023/02/26 10:56:43;;;;;;;2.17;0.83;;;6.10;99.90;;;;;;5042509;28;20552;-78
2023/02/26 10:59:10;;;;;;;3.13;1.23;;;6.10;99.90;;;;;;5041216;28;20308;-77
2023/02/26 11:01:39;;;;;;;1.90;0.80;;;6.20;99.90;;;;;;5039876;28;20336;-76
2023/02/26 11:04:09;;;;;;;1.43;0.80;;;6.30;1.00;;;;;;5040341;28;20202;-76
2023/02/26 11:06:41;;;;;;;3.03;1.10;;;6.40;1.00;;;;;;5041944;28;20222;-74
2023/02/26 11:09:19;;;;;;;2.90;1.00;;;6.40;99.90;;;;;;5055453;28;20202;-76
2023/02/26 11:11:48;;;;;;;2.30;0.90;;;6.50;1.00;;;;;;5061449;28;20193;-75
2023/02/26 11:14:15;;;;;;;3.67;1.00;;;6.70;1.00;;;;;;5060054;28;20602;-75
2023/02/26 11:16:53;;;;;;;4.13;0.90;;;6.80;1.00;;;;;;5061196;28;20224;-76
2023/02/26 11:19:24;;;;;;;6.10;1.60;;;6.90;1.00;;;;;;5057665;28;20193;-77
2023/02/26 11:21:51;;;;;;;4.63;1.17;;;7.00;1.00;;;;;;5058258;28;20243;-76
2023/02/26 11:24:27;;;;;;;3.33;1.00;;;7.10;1.00;;;;;;5060219;28;20288;-76
2023/02/26 11:26:56;;;;;;;4.93;0.73;;;7.10;1.00;;;;;;5060350;28;20259;-77
2023/02/26 11:29:25;;;;;;;4.27;1.63;;;7.10;1.00;;;;;;5057414;28;20781;-75
2023/02/26 11:31:56;;;;;;;2.57;1.00;;;7.10;1.00;;;;;;5058135;28;20613;-78
2023/02/26 11:34:25;;;;;;;2.80;1.20;;;7.00;1.00;;;;;;5061081;28;20211;-76
2023/02/26 11:36:56;;;;;;;2.33;0.80;;;6.90;1.00;;;;;;5060245;28;20290;-76
2023/02/26 11:39:25;;;;;;;4.03;1.50;;;6.80;1.00;;;;;;5059536;28;20205;-75
2023/02/26 11:41:55;;;;;;;3.40;1.60;;;6.70;1.00;;;;;;5061223;28;20201;-76
2023/02/26 11:44:36;;;;;;;6.17;0.80;;;6.80;99.90;;;;;;5060389;28;20201;-77
2023/02/26 11:47:11;;;;;;;1.57;0.83;;;7.00;96.50;;;;;;5056648;28;20328;-75
2023/02/26 11:49:43;;;;;;;3.90;0.97;;;7.10;99.90;;;;;;5044399;28;20205;-76
2023/02/26 11:52:21;;;;;;;2.63;0.87;;;7.20;1.00;;;;;;5044613;28;20205;-76
2023/02/26 11:54:51;;;;;;;4.40;1.17;;;7.30;1.00;;;;;;5052020;28;20201;-77
2023/02/26 11:57:20;;;;;;;2.93;1.63;;;7.40;1.00;;;;;;5050049;28;20321;-76
2023/02/26 11:59:50;;;;;;;2.67;1.00;;;7.50;1.00;;;;;;5044469;28;20224;-76
2023/02/26 12:02:21;;;;;;;5.70;1.70;;;7.50;99.90;;;;;;5044998;28;20202;-75
2023/02/26 12:04:53;;;;;;;5.73;1.30;;;7.40;99.90;;;;;;5044664;28;20190;-76
2023/02/26 12:07:21;;;;;;;4.03;1.10;;;7.50;99.90;;;;;;5044598;28;20271;-76
2023/02/26 12:09:49;;;;;;;4.20;1.03;;;7.30;99.90;;;;;;5044006;28;20321;-77
2023/02/26 12:12:29;;;;;;;3.73;0.60;;;7.30;1.00;;;;;;5043959;28;20202;-74
2023/02/26 12:15:12;;;;;;;2.80;0.90;;;7.30;99.90;;;;;;5044199;28;20630;-74
2023/02/26 12:17:54;;;;;;;7.90;1.10;;;7.30;1.00;;;;;;5044348;28;20202;-76
2023/02/26 12:20:26;;;;;;;3.43;0.80;;;7.30;1.00;;;;;;5043322;28;20209;-76
2023/02/26 12:23:14;;;;;;;3.17;0.87;;;7.30;1.00;;;;;;5060870;28;20205;-74
2023/02/26 12:26:17;;;;;;;4.67;1.00;;;7.30;1.00;;;;;;5063012;28;20769;-76
2023/02/26 12:28:59;;;;;;;5.53;0.83;;;7.50;1.00;;;;;;5007657;28;20711;-76
2023/02/26 12:31:43;;;;;;;4.03;0.80;;;7.60;1.00;;;;;;5043825;28;20194;-74
2023/02/26 12:34:35;;;;;;;3.70;0.83;;;7.60;1.00;;;;;;5044088;28;20202;-74
2023/02/26 12:37:18;;;;;;;5.27;0.93;;;7.80;1.00;;;;;;5043762;28;20190;-76
2023/02/26 12:39:57;;;;;;;1.37;1.00;;;7.90;1.00;;;;;;5043080;28;20209;-76
2023/02/26 12:42:36;;;;;;;5.27;1.57;;;8.00;99.90;;;;;;5043298;28;20504;-76
2023/02/26 12:45:17;;;;;;;2.77;0.93;;;8.00;99.90;;;;;;5043053;28;20618;-76
2023/02/26 12:47:56;;;;;;;2.07;1.30;;;8.00;99.90;;;;;;5042130;28;20538;-76
2023/02/26 12:50:40;;;;;;;3.20;0.90;;;8.10;99.90;;;;;;5042112;28;20194;-75
2023/02/26 12:53:35;;;;;;;3.17;1.17;;;8.10;99.90;;;;;;5042250;28;20197;-76
2023/02/26 12:56:41;;;;;;;2.27;1.00;;;8.00;1.00;;;;;;5041526;28;20806;-75
2023/02/26 12:59:24;;;;;;;3.70;1.17;;;8.10;99.90;;;;;;5042672;28;20224;-76
2023/02/26 13:02:04;;;;;;;3.93;1.00;;;8.20;99.90;;;;;;5042570;28;20208;-76
2023/02/26 13:05:01;;;;;;;2.20;0.80;;;8.00;1.00;;;;;;5043790;28;20280;-75
2023/02/26 13:07:48;;;;;;;2.90;0.90;;;7.80;89.00;;;;;;5042794;28;20261;-76
2023/02/26 13:10:26;;;;;;;3.03;0.90;;;7.80;1.00;;;;;;5043511;28;20193;-76
2023/02/26 13:13:02;;;;;;;4.10;1.60;;;7.80;1.00;;;;;;5042904;28;20669;-75
2023/02/26 13:15:51;;;;;;;5.43;0.80;;;7.70;1.00;;;;;;5042785;28;20293;-77
2023/02/26 13:18:26;;;;;;;4.53;0.87;;;7.50;36.30;;;;;;5043097;28;20209;-77
2023/02/26 13:20:59;;;;;;;4.77;1.63;;;7.50;1.00;;;;;;5043204;28;20198;-75
2023/02/26 13:23:33;;;;;;;2.00;0.97;;;7.50;7.10;;;;;;5042760;28;20848;-75